首页
METAR-TAF:

METAR-TAF

机场 :

比萨-圣朱斯托机场

比萨, 意大利

纬度: 43-41N, 经度: 010-23E, 海拔: 2米

当前天气观测

该预报发布于20分钟前的01:15 UTC
风速5节,风向
温度 11°C
湿度 100%
气压 1020 hPa
能见度10公里或以上
少量云层高于4000英尺

METAR: LIRP 170115Z 09005KT 9999 FEW040 11/11 Q1020 NOSIG

时间: 03:35 (01:35 UTC)

预报

该预报发布于2小时和35分钟前的23:00 UTC
预报有效从17日的 00点(UTC)到 17日的 24点(UTC)
风速5节,风向东转东南
能见度10公里或以上
散云层高于3000英尺
几率 30% :
短暂存在
从 17日的 01点(UTC)到 17日的 06点(UTC)
能見度: 4000
多云层高于1500英尺
轻雾
成为
从 17日的 10点(UTC)到 17日的 12点(UTC)
风速10节,风向西
成为
从 17日的 19点(UTC)到 17日的 21点(UTC)
风速5节,风向东转东南

TAF: LIRP 162300Z 1700/1724 12005KT 9999 SCT030 PROB30 TEMPO 1701/1706 4000 BR BKN015 BECMG 1710/1712 27010KT BECMG 1719/1721 12005KT

超过4000个机场的气象观测和天气预报(METAR&TAF报告)。

可查询的气象台以黄色和红色小点在地图上表示。

将鼠标移到小点上方,可查看气象台名称。

然后点击查看天气观测和预报。

如需切换地图:点击带黑十字的绿色按钮放大地图;点击带横线的绿色按钮缩小地图;或者点击绿色箭头查看邻近地区的地图。


METAR-TAF: